Live Oak, Texas
Current Conditions -  °F | °C
As of 3:23 PM on Saturday 22 Nov 2014 (Local Time) from KRND Reporting Station
Broken Clouds Broken Clouds  
Wind Chill: 73°   Ceiling: 2000
Heat Index: 73°   Visibility: 10mi
Dew Point: 68°   Wind: 13mph
Humidity: 83%   Direction: 180°S
Pressure: 29.75"   Gusts: NA
Location:  29.56°N, 98.34°W
Report Text: KRND 222123Z AUTO 18011KT 10SM SCT012 BKN020 BKN035 23/20 A2975 RMK AO2
Loading
Personal Weather Stations






























Interactive Weather Map New forecast layout! Learn more

10-Day Weather Forecast

Advertisements
Track Severe Weather on mobile